Disney Magic — C6PT7 — position and weather

sailwx.info

Track history (hours):
 
Tides and Currents Weather Stations Pressure Air Temp Water Temp Dewpoint Dewpoint Depression Visibility Wind Speed Wind Dir Waves Ship Positions

Disney Magic

Last reported at 2017-Feb-24 07:16 UTC. Time now 2017-Feb-24 08:22 UTC.
Position N 25°06' W 080°06'.

Type: Passenger vessel. MMSI: 308516000.

Date/timePositionNaut miles runAvg speedWind from/ knotsBaromVisibWave heightAir tempDewpointWater temp
2017-Feb-24 07:16N 25°06' W 080°06'1318.1
2017-Feb-24 06:33N 25°16' W 079°58'1818.5
2017-Feb-24 05:33N 25°31' W 079°46'1817.9
2017-Feb-24 04:33N 25°46' W 079°35'3824.2
2017-Feb-24 03:00N 26°18' W 079°12'20 0.8 270 / 211018.610.8 24.015.526.3
2017-Feb-23 02:33N 26°05' W 079°28'1010.5
2017-Feb-23 01:33N 25°60' W 079°38'1110.9
2017-Feb-23 00:33N 25°55' W 079°49'1110.7
2017-Feb-22 23:33N 25°50' W 079°59'9 9.1
2017-Feb-22 22:34N 25°46' W 080°09'2 1.8
2017-Feb-22 21:32N 25°47' W 080°10'0 0.0
2017-Feb-22 20:32N 25°47' W 080°10'0 0.0
2017-Feb-22 19:32N 25°47' W 080°10'0 0.0
2017-Feb-22 18:31N 25°47' W 080°10'0 0.0
2017-Feb-22 17:32N 25°47' W 080°10'0 0.0
2017-Feb-22 16:32N 25°47' W 080°10'0 0.0
2017-Feb-22 15:32N 25°47' W 080°10'0 0.0
2017-Feb-22 14:32N 25°47' W 080°10'0 0.0
2017-Feb-22 13:32N 25°47' W 080°10'0 0.0
2017-Feb-22 12:31N 25°47' W 080°10'0 0.0
2017-Feb-22 11:32N 25°47' W 080°10'0 0.3
2017-Feb-22 10:33N 25°47' W 080°10'8 7.6
2017-Feb-22 09:33N 25°47' W 080°02'8 7.5
2017-Feb-22 08:33N 25°51' W 079°55'8 7.5
2017-Feb-22 07:33N 25°55' W 079°47'8 7.9
2017-Feb-22 06:33N 25°59' W 079°40'8 7.8
2017-Feb-22 05:33N 26°03' W 079°33'8 7.9
2017-Feb-22 04:33N 26°08' W 079°26'72 5.3
2017-Feb-21 15:00N 26°00' W 078°06'5 5.4 060 / 121021.810.8 23.512.625.5
2017-Feb-21 14:00N 26°00' W 078°12'13 1.2 060 / 121021.810.8 23.512.625.5
2017-Feb-21 03:00N 26°12' W 078°06'77 1.7 050 / 121022.310.8 22.515.523.2
2017-Feb-19 05:33N 25°49' W 079°28'2222.3
2017-Feb-19 04:34N 25°30' W 079°41'4025.4
2017-Feb-19 03:00N 24°54' W 080°00'25 1.0 150 / 151020.810.8 25.020.726.7
2017-Feb-18 01:21N 25°19' W 079°59'1113.4
2017-Feb-18 00:33N 25°29' W 079°58'1312.8
2017-Feb-17 23:34N 25°42' W 080°00'1010.0
2017-Feb-17 22:33N 25°47' W 080°10'1 0.5
2017-Feb-17 21:33N 25°47' W 080°10'0 0.0
2017-Feb-17 20:33N 25°47' W 080°10'0 0.0
2017-Feb-17 19:33N 25°47' W 080°10'0 0.0
2017-Feb-17 18:33N 25°47' W 080°10'0 0.0
2017-Feb-17 17:33N 25°47' W 080°10'0 0.0
2017-Feb-17 16:33N 25°47' W 080°10'0 0.0
2017-Feb-17 15:33N 25°47' W 080°10'0 0.0
2017-Feb-17 14:33N 25°47' W 080°10'0 0.0
2017-Feb-17 13:33N 25°47' W 080°10'0 0.0
2017-Feb-17 12:33N 25°47' W 080°10'0 0.0
2017-Feb-17 11:33N 25°47' W 080°10'0 0.0
2017-Feb-17 10:30N 25°47' W 080°10'2 2.0
2017-Feb-17 09:33N 25°46' W 080°09'8 8.3
2017-Feb-17 08:33N 25°48' W 079°60'7 7.3
2017-Feb-17 07:33N 25°52' W 079°53'7 7.3
2017-Feb-17 06:33N 25°56' W 079°46'8 7.8
2017-Feb-17 05:33N 25°60' W 079°38'9 8.6
2017-Feb-17 04:32N 26°04' W 079°30'9 8.8
2017-Feb-17 03:33N 26°09' W 079°21'19 0.9
2017-Feb-16 06:30N 25°49' W 079°25'2122.4
2017-Feb-16 05:33N 25°29' W 079°31'30420.9
2017-Feb-15 15:00N 22°54' W 084°18'1616.3 170 / 151017.210.8 26.023.226.7
2017-Feb-15 14:00N 22°42' W 084°30'18616.9 170 / 151017.210.8 26.023.226.7
2017-Feb-15 03:00N 20°06' W 082°42'   130 / 151017.210.8 25.022.226.7
Track history (hours):
 
Tides and Currents Weather Stations Pressure Air Temp Water Temp Dewpoint Dewpoint Depression Visibility Wind Speed Wind Dir Waves Ship Positions

Disney Magic

Last reported at 2017-Feb-24 07:16 UTC. Time now 2017-Feb-24 08:22 UTC.
Position N 25°06' W 080°06'.

Type: Passenger vessel. MMSI: 308516000.

Date/timePositionNaut miles runAvg speedWind from/ knotsBaromVisibWave heightAir tempDewpointWater temp
2017-Feb-24 07:16N 25°06' W 080°06'1318.1
2017-Feb-24 06:33N 25°16' W 079°58'1818.5
2017-Feb-24 05:33N 25°31' W 079°46'1817.9
2017-Feb-24 04:33N 25°46' W 079°35'3824.2
2017-Feb-24 03:00N 26°18' W 079°12'20 0.8 270 / 211018.610.8 24.015.526.3
2017-Feb-23 02:33N 26°05' W 079°28'1010.5
2017-Feb-23 01:33N 25°60' W 079°38'1110.9
2017-Feb-23 00:33N 25°55' W 079°49'1110.7
2017-Feb-22 23:33N 25°50' W 079°59'9 9.1
2017-Feb-22 22:34N 25°46' W 080°09'2 1.8
2017-Feb-22 21:32N 25°47' W 080°10'0 0.0
2017-Feb-22 20:32N 25°47' W 080°10'0 0.0
2017-Feb-22 19:32N 25°47' W 080°10'0 0.0
2017-Feb-22 18:31N 25°47' W 080°10'0 0.0
2017-Feb-22 17:32N 25°47' W 080°10'0 0.0
2017-Feb-22 16:32N 25°47' W 080°10'0 0.0
2017-Feb-22 15:32N 25°47' W 080°10'0 0.0
2017-Feb-22 14:32N 25°47' W 080°10'0 0.0
2017-Feb-22 13:32N 25°47' W 080°10'0 0.0
2017-Feb-22 12:31N 25°47' W 080°10'0 0.0
2017-Feb-22 11:32N 25°47' W 080°10'0 0.3
2017-Feb-22 10:33N 25°47' W 080°10'8 7.6
2017-Feb-22 09:33N 25°47' W 080°02'8 7.5
2017-Feb-22 08:33N 25°51' W 079°55'8 7.5
2017-Feb-22 07:33N 25°55' W 079°47'8 7.9
2017-Feb-22 06:33N 25°59' W 079°40'8 7.8
2017-Feb-22 05:33N 26°03' W 079°33'8 7.9
2017-Feb-22 04:33N 26°08' W 079°26'72 5.3
2017-Feb-21 15:00N 26°00' W 078°06'5 5.4 060 / 121021.810.8 23.512.625.5
2017-Feb-21 14:00N 26°00' W 078°12'13 1.2 060 / 121021.810.8 23.512.625.5
2017-Feb-21 03:00N 26°12' W 078°06'77 1.7 050 / 121022.310.8 22.515.523.2
2017-Feb-19 05:33N 25°49' W 079°28'2222.3
2017-Feb-19 04:34N 25°30' W 079°41'4025.4
2017-Feb-19 03:00N 24°54' W 080°00'25 1.0 150 / 151020.810.8 25.020.726.7
2017-Feb-18 01:21N 25°19' W 079°59'1113.4
2017-Feb-18 00:33N 25°29' W 079°58'1312.8
2017-Feb-17 23:34N 25°42' W 080°00'1010.0
2017-Feb-17 22:33N 25°47' W 080°10'1 0.5
2017-Feb-17 21:33N 25°47' W 080°10'0 0.0
2017-Feb-17 20:33N 25°47' W 080°10'0 0.0
2017-Feb-17 19:33N 25°47' W 080°10'0 0.0
2017-Feb-17 18:33N 25°47' W 080°10'0 0.0
2017-Feb-17 17:33N 25°47' W 080°10'0 0.0
2017-Feb-17 16:33N 25°47' W 080°10'0 0.0
2017-Feb-17 15:33N 25°47' W 080°10'0 0.0
2017-Feb-17 14:33N 25°47' W 080°10'0 0.0
2017-Feb-17 13:33N 25°47' W 080°10'0 0.0
2017-Feb-17 12:33N 25°47' W 080°10'0 0.0
2017-Feb-17 11:33N 25°47' W 080°10'0 0.0
2017-Feb-17 10:30N 25°47' W 080°10'2 2.0
2017-Feb-17 09:33N 25°46' W 080°09'8 8.3
2017-Feb-17 08:33N 25°48' W 079°60'7 7.3
2017-Feb-17 07:33N 25°52' W 079°53'7 7.3
2017-Feb-17 06:33N 25°56' W 079°46'8 7.8
2017-Feb-17 05:33N 25°60' W 079°38'9 8.6
2017-Feb-17 04:32N 26°04' W 079°30'9 8.8
2017-Feb-17 03:33N 26°09' W 079°21'19 0.9
2017-Feb-16 06:30N 25°49' W 079°25'2122.4
2017-Feb-16 05:33N 25°29' W 079°31'30420.9
2017-Feb-15 15:00N 22°54' W 084°18'1616.3 170 / 151017.210.8 26.023.226.7
2017-Feb-15 14:00N 22°42' W 084°30'18616.9 170 / 151017.210.8 26.023.226.7
2017-Feb-15 03:00N 20°06' W 082°42'   130 / 151017.210.8 25.022.226.7

Dump ship's entire track history